No particular awareness of the weather is required.    There are no Weather-warnings


Meteo18 Weather Cam more information Meteo18 Weather Cam


Thunder radar more information blitzortung!


Rain radar more information rain snow radar


Visit our other weather sites:

Template documentation
and downloads

And another site



Weather Underground History page Text

Daily Summary for November 8, 2017 Units:  English    Metric   Both
« Previous Day
Next Day »
Daily Weekly Monthly Yearly Custom
  High: Low: Average:
Temperature: TemperatureC °F -2.1 °F 3.6 °F
Dew Point: DewpointC °F -2.8 °F 2.3 °F
Humidity: Humidity % 81 % 91 %
Wind Speed: WindSpeedKMH mph 0.0 mph 0.6 mph
Wind Gust: WindSpeedGustKMH mph - -
Wind:- - West
Pressure: PressurehPa in 1018.2 in -
Precipitation: 0.5 in    
Historical Graphs
 
 
Tabular Data for November 8, 2017
Time Temperature Dew Point Pressure Wind Wind Speed Wind Gust Humidity Rainfall Rate (Hourly)
TemperatureC °F DewpointC °F PressurehPa in Calm     Humidity % HourlyPrecipMM in
00:02 -0.5 °F -1.5 °F 1018.8 in West 1.6 mph 1.6 mph 93 % 0.0 in
00:12 -0.4 °F -1.4 °F 1018.8 in Calm   1.6 mph 93 % 0.0 in
00:17 -0.2 °F -1.0 °F 1018.8 in Calm   1.6 mph 94 % 0.0 in
00:22 -0.3 °F -1.3 °F 1018.8 in Calm   1.6 mph 93 % 0.0 in
00:32 -0.3 °F -1.1 °F 1018.5 in Calm     94 % 0.0 in
00:42 -0.7 °F -1.5 °F 1018.8 in Calm   3.2 mph 94 % 0.0 in
00:47 -0.6 °F -1.4 °F 1018.8 in WNW 1.6 mph 3.2 mph 94 % 0.0 in
00:52 -0.6 °F -1.4 °F 1018.5 in Calm   3.2 mph 94 % 0.0 in
00:57 -0.7 °F -1.5 °F 1018.5 in Calm   4.8 mph 94 % 0.0 in
01:02 -0.7 °F -1.7 °F 1018.8 in Calm   4.8 mph 93 % 0.0 in
01:12 -1.4 °F -2.4 °F 1018.8 in Calm   1.6 mph 93 % 0.0 in
01:17 -1.7 °F -2.7 °F 1018.8 in Calm   3.2 mph 93 % 0.0 in
01:22 -1.4 °F -2.1 °F 1018.5 in Calm   3.2 mph 95 % 0.0 in
01:27 -1.2 °F -1.9 °F 1018.5 in Calm   3.2 mph 95 % 0.0 in
01:32 -1.2 °F -2.0 °F 1018.8 in Calm   1.6 mph 94 % 0.0 in
01:37 -1.4 °F -2.2 °F 1018.8 in Calm   1.6 mph 94 % 0.0 in
01:42 -1.5 °F -2.3 °F 1018.5 in Calm   1.6 mph 94 % 0.0 in
01:47 -1.6 °F -2.4 °F 1018.5 in Calm     94 % 0.0 in
01:52 -1.6 °F -2.4 °F 1018.5 in Calm     94 % 0.0 in
01:57 -1.7 °F -2.5 °F 1018.5 in Calm     94 % 0.0 in
02:02 -1.9 °F -2.7 °F 1018.5 in Calm     94 % 0.0 in
02:07 -1.8 °F -2.5 °F 1018.2 in Calm     95 % 0.0 in
02:12 -1.8 °F -2.5 °F 1018.5 in Calm     95 % 0.0 in
02:17 -1.7 °F -2.4 °F 1018.5 in Calm     95 % 0.0 in
02:22 -1.8 °F -2.6 °F 1018.5 in WNW 1.6 mph 1.6 mph 94 % 0.0 in
02:32 -1.8 °F -2.5 °F 1018.5 in Calm   3.2 mph 95 % 0.0 in
02:37 -1.9 °F -2.7 °F 1018.5 in Calm   1.6 mph 94 % 0.0 in
02:42 -1.7 °F -2.4 °F 1018.5 in Calm   1.6 mph 95 % 0.0 in
02:47 -1.6 °F -2.3 °F 1018.5 in Calm   1.6 mph 95 % 0.0 in
02:52 -1.8 °F -2.5 °F 1018.5 in Calm   1.6 mph 95 % 0.0 in
02:57 -1.9 °F -2.7 °F 1018.5 in WNW 1.6 mph 1.6 mph 94 % 0.0 in
03:02 -2.1 °F -2.8 °F 1018.5 in Calm   1.6 mph 95 % 0.0 in
03:07 -2.1 °F -2.8 °F 1018.5 in Calm   1.6 mph 95 % 0.0 in
03:12 -2.1 °F -2.8 °F 1018.5 in Calm   1.6 mph 95 % 0.0 in
03:17 -1.9 °F -2.6 °F 1018.2 in Calm   1.6 mph 95 % 0.0 in
03:22 -1.8 °F -2.5 °F 1018.2 in Calm   1.6 mph 95 % 0.0 in
03:27 -1.9 °F -2.6 °F 1018.2 in Calm   1.6 mph 95 % 0.0 in
03:37 -1.9 °F -2.6 °F 1018.2 in Calm   1.6 mph 95 % 0.0 in
03:42 -1.8 °F -2.5 °F 1018.2 in Calm   1.6 mph 95 % 0.0 in
03:47 -1.9 °F -2.6 °F 1018.2 in Calm     95 % 0.0 in
03:57 -2.0 °F -2.7 °F 1018.2 in Calm     95 % 0.0 in
04:02 -2.0 °F -2.7 °F 1018.2 in Calm     95 % 0.0 in
08:57 0.2 °F -0.5 °F 1019.2 in Calm     95 % 0.0 in
09:02 0.2 °F -0.5 °F 1019.5 in Calm     95 % 0.0 in
09:07 0.3 °F -0.4 °F 1019.5 in Calm     95 % 0.0 in
09:12 0.4 °F -0.3 °F 1019.2 in Calm     95 % 0.0 in
09:17 0.4 °F -0.3 °F 1019.2 in Calm     95 % 0.0 in
09:22 0.5 °F -0.2 °F 1019.5 in Calm     95 % 0.0 in
09:32 0.8 °F 0.2 °F 1019.5 in Calm     96 % 0.0 in
09:37 0.8 °F 0.1 °F 1019.9 in Calm     95 % 0.0 in
09:42 0.9 °F 0.2 °F 1019.9 in Calm     95 % 0.0 in
09:52 1.1 °F 0.4 °F 1019.9 in Calm     95 % 0.0 in
10:02 1.4 °F 0.7 °F 1019.9 in Calm     95 % 0.0 in
10:12 1.6 °F 0.9 °F 1019.9 in Calm     95 % 0.0 in
10:17 1.7 °F 1.0 °F 1019.9 in Calm     95 % 0.0 in
10:22 1.7 °F 1.0 °F 1019.9 in Calm     95 % 0.0 in
10:32 2.0 °F 1.3 °F 1019.9 in Calm     95 % 0.0 in
10:37 2.1 °F 1.2 °F 1019.9 in Calm     94 % 0.0 in
10:42 2.1 °F 1.2 °F 1019.9 in Calm     94 % 0.0 in
10:52 2.1 °F 1.2 °F 1020.2 in Calm     94 % 0.0 in
11:02 2.3 °F 1.4 °F 1020.2 in Calm     94 % 0.0 in
11:12 2.6 °F 1.7 °F 1020.2 in Calm     94 % 0.3 in
11:17 2.6 °F 1.6 °F 1020.2 in Calm     93 % 0.3 in
11:22 2.6 °F 1.6 °F 1020.2 in Calm     93 % 0.3 in
11:32 2.9 °F 1.9 °F 1020.2 in Calm     93 % 0.3 in
11:42 3.5 °F 2.6 °F 1020.2 in Calm     94 % 0.3 in
11:47 3.4 °F 2.4 °F 1020.5 in Calm     93 % 0.3 in
11:52 3.4 °F 2.4 °F 1020.2 in Calm     93 % 0.3 in
11:57 3.4 °F 2.4 °F 1020.2 in Calm     93 % 0.3 in
12:02 3.6 °F 2.6 °F 1020.2 in Calm     93 % 0.3 in
12:12 3.8 °F 2.8 °F 1020.2 in Calm     93 % 0.0 in
12:17 3.9 °F 2.7 °F 1020.2 in Calm     92 % 0.0 in
12:22 3.9 °F 2.7 °F 1020.2 in Calm     92 % 0.0 in
12:32 4.1 °F 2.9 °F 1020.2 in Calm     92 % 0.0 in
12:42 4.3 °F 3.1 °F 1020.2 in Calm   3.2 mph 92 % 0.0 in
12:47 4.3 °F 3.1 °F 1020.2 in Calm   3.2 mph 92 % 0.0 in
12:57 4.7 °F 3.5 °F 1020.2 in Calm   3.2 mph 92 % 0.0 in
13:02 4.7 °F 3.4 °F 1020.5 in ENE 1.6 mph   91 % 0.0 in
13:07 4.6 °F 3.3 °F 1020.5 in Calm   1.6 mph 91 % 0.0 in
13:12 4.7 °F 3.4 °F 1020.5 in Calm   3.2 mph 91 % 0.0 in
13:17 4.7 °F 3.4 °F 1020.2 in Calm   3.2 mph 91 % 0.0 in
13:22 4.8 °F 3.6 °F 1020.2 in Calm   3.2 mph 92 % 0.0 in
13:27 5.1 °F 3.8 °F 1020.2 in Calm     91 % 0.0 in
13:32 5.1 °F 3.8 °F 1020.2 in Calm     91 % 0.0 in
13:37 5.4 °F 4.2 °F 1020.2 in Calm   3.2 mph 92 % 0.0 in
13:42 5.6 °F 3.9 °F 1020.2 in East 1.6 mph 3.2 mph 89 % 0.0 in
13:47 5.4 °F 3.7 °F 1020.2 in Calm   3.2 mph 89 % 0.0 in
13:57 5.5 °F 4.0 °F 1020.2 in Calm   3.2 mph 90 % 0.0 in
14:07 6.2 °F 4.4 °F 1020.2 in Calm   1.6 mph 88 % 0.0 in
14:12 6.3 °F 4.3 °F 1020.2 in Calm   3.2 mph 87 % 0.0 in
14:17 6.4 °F 4.2 °F 1020.2 in Calm   3.2 mph 86 % 0.0 in
14:27 6.5 °F 4.2 °F 1020.2 in SSW 3.2 mph 4.8 mph 85 % 0.0 in
14:32 6.6 °F 4.4 °F 1020.2 in Calm   4.8 mph 86 % 0.0 in
14:37 6.6 °F 4.1 °F 1020.2 in Calm   4.8 mph 84 % 0.0 in
14:42 6.5 °F 4.0 °F 1020.2 in Calm   3.2 mph 84 % 0.0 in
14:47 6.5 °F 4.2 °F 1020.2 in Calm   3.2 mph 85 % 0.0 in
14:52 6.5 °F 4.0 °F 1020.5 in SSW 1.6 mph 3.2 mph 84 % 0.0 in
14:57 6.6 °F 4.1 °F 1020.5 in Calm   3.2 mph 84 % 0.0 in
15:02 6.8 °F 4.5 °F 1020.5 in Calm   3.2 mph 85 % 0.0 in
15:07 7.2 °F 4.5 °F 1020.5 in SSW 1.6 mph 3.2 mph 83 % 0.0 in
15:12 7.1 °F 4.4 °F 1020.5 in Calm   3.2 mph 83 % 0.0 in
15:17 7.1 °F 4.6 °F 1020.5 in Calm   3.2 mph 84 % 0.0 in
15:22 7.2 °F 4.5 °F 1020.5 in Calm   4.8 mph 83 % 0.0 in
15:27 7.3 °F 4.4 °F 1020.5 in Calm   4.8 mph 82 % 0.0 in
15:32 7.3 °F 4.3 °F 1020.5 in SW 1.6 mph 3.2 mph 81 % 0.0 in
15:37 7.1 °F 4.1 °F 1020.5 in Calm   3.2 mph 81 % 0.0 in
15:42 7.0 °F 4.1 °F 1020.5 in Calm   3.2 mph 82 % 0.0 in
15:47 6.9 °F 4.0 °F 1020.5 in Calm   3.2 mph 82 % 0.0 in
15:57 6.8 °F 4.1 °F 1020.5 in SSE 1.6 mph 3.2 mph 83 % 0.0 in
16:02 6.7 °F 4.0 °F 1020.9 in Calm   3.2 mph 83 % 0.0 in
16:07 6.7 °F 4.0 °F 1020.9 in Calm   3.2 mph 83 % 0.0 in
16:12 6.6 °F 4.1 °F 1020.9 in SSW 1.6 mph 4.8 mph 84 % 0.0 in
16:17 6.5 °F 4.0 °F 1020.9 in SW 6.4 mph 6.4 mph 84 % 0.0 in
16:22 6.4 °F 4.1 °F 1020.9 in SW 3.2 mph 6.4 mph 85 % 0.0 in
16:27 6.3 °F 4.0 °F 1020.9 in SW 4.8 mph 6.4 mph 85 % 0.0 in
16:32 6.3 °F 4.1 °F 1021.2 in Calm   6.4 mph 86 % 0.0 in
16:37 6.3 °F 4.1 °F 1021.2 in Calm   4.8 mph 86 % 0.0 in
16:42 6.3 °F 4.1 °F 1021.2 in Calm   4.8 mph 86 % 0.0 in
16:47 6.2 °F 4.0 °F 1021.2 in SW 1.6 mph 4.8 mph 86 % 0.0 in
16:52 6.1 °F 3.9 °F 1021.2 in SW 3.2 mph 4.8 mph 86 % 0.0 in
16:57 6.1 °F 3.9 °F 1021.2 in WSW 4.8 mph 4.8 mph 86 % 0.0 in
17:07 6.1 °F 4.1 °F 1021.6 in Calm   4.8 mph 87 % 0.0 in
17:12 6.0 °F 4.0 °F 1021.6 in Calm   4.8 mph 87 % 0.0 in
17:17 6.0 °F 4.0 °F 1021.6 in Calm   4.8 mph 87 % 0.0 in
17:22 5.9 °F 3.9 °F 1021.6 in Calm   3.2 mph 87 % 0.0 in
17:32 5.9 °F 4.1 °F 1021.6 in Calm   3.2 mph 88 % 0.0 in
17:37 5.9 °F 4.1 °F 1021.6 in SW 1.6 mph 1.6 mph 88 % 0.0 in
17:42 5.9 °F 4.1 °F 1021.6 in Calm   1.6 mph 88 % 0.0 in
17:47 5.9 °F 4.2 °F 1021.6 in Calm   1.6 mph 89 % 0.0 in
17:52 5.8 °F 4.1 °F 1021.6 in SW 1.6 mph 3.2 mph 89 % 0.0 in
17:57 5.8 °F 4.1 °F 1021.6 in Calm   3.2 mph 89 % 0.0 in
18:02 5.8 °F 4.1 °F 1021.6 in SW 3.2 mph 3.2 mph 89 % 0.0 in
18:12 5.7 °F 4.0 °F 1021.6 in WSW 1.6 mph 3.2 mph 89 % 0.0 in
18:17 5.7 °F 4.2 °F 1021.6 in West 1.6 mph 3.2 mph 90 % 0.0 in
18:22 5.7 °F 4.2 °F 1021.6 in Calm   3.2 mph 90 % 0.0 in
18:32 5.6 °F 4.1 °F 1021.6 in West 1.6 mph 1.6 mph 90 % 0.0 in
18:42 5.6 °F 4.2 °F 1021.6 in Calm   3.2 mph 91 % 0.0 in
18:47 5.6 °F 4.2 °F 1021.9 in Calm   3.2 mph 91 % 0.0 in
18:52 5.5 °F 4.1 °F 1021.9 in Calm   1.6 mph 91 % 0.0 in
18:57 5.4 °F 4.0 °F 1021.9 in Calm   1.6 mph 91 % 0.0 in
19:02 5.4 °F 4.0 °F 1021.9 in Calm     91 % 0.0 in
19:07 5.4 °F 4.2 °F 1022.2 in Calm     92 % 0.0 in
19:12 5.3 °F 4.1 °F 1022.2 in Calm     92 % 0.0 in
19:17 5.3 °F 4.1 °F 1022.2 in Calm     92 % 0.0 in
19:22 5.3 °F 4.1 °F 1022.2 in Calm     92 % 0.0 in
19:27 5.3 °F 4.1 °F 1022.2 in Calm     92 % 0.0 in
19:32 5.3 °F 4.1 °F 1022.2 in Calm     92 % 0.0 in
19:37 5.4 °F 4.2 °F 1022.2 in WNW 1.6 mph 4.8 mph 92 % 0.0 in
19:42 5.4 °F 4.2 °F 1022.2 in WNW 3.2 mph 4.8 mph 92 % 0.0 in
19:47 5.6 °F 4.4 °F 1022.2 in NW 6.4 mph 6.4 mph 92 % 0.0 in
19:52 5.6 °F 4.4 °F 1022.2 in WNW 1.6 mph 8.0 mph 92 % 0.0 in
19:57 5.7 °F 4.5 °F 1022.2 in NW 1.6 mph 8.0 mph 92 % 0.0 in
20:02 5.7 °F 4.5 °F 1022.2 in West 1.6 mph 8.0 mph 92 % 0.0 in
20:07 5.8 °F 4.4 °F 1022.2 in WNW 1.6 mph 6.4 mph 91 % 0.0 in
20:12 5.8 °F 4.4 °F 1022.2 in NW 3.2 mph 6.4 mph 91 % 0.0 in
20:22 5.7 °F 4.3 °F 1022.6 in WNW 8.0 mph 8.0 mph 91 % 0.0 in
20:27 5.7 °F 4.3 °F 1022.6 in WNW 4.8 mph 9.7 mph 91 % 0.0 in
20:32 5.7 °F 4.3 °F 1022.6 in WNW 4.8 mph 9.7 mph 91 % 0.0 in
20:37 5.7 °F 4.3 °F 1022.6 in Calm   9.7 mph 91 % 0.0 in
20:42 5.6 °F 4.2 °F 1022.6 in NW 3.2 mph 6.4 mph 91 % 0.0 in
20:47 5.6 °F 4.2 °F 1022.6 in NW 3.2 mph 6.4 mph 91 % 0.0 in
20:52 5.6 °F 4.2 °F 1022.6 in Calm   6.4 mph 91 % 0.0 in
20:57 5.6 °F 4.2 °F 1022.6 in Calm   6.4 mph 91 % 0.0 in
21:02 5.6 °F 4.2 °F 1022.6 in Calm   6.4 mph 91 % 0.0 in
21:07 5.6 °F 4.2 °F 1022.9 in Calm   3.2 mph 91 % 0.0 in
21:12 5.6 °F 4.2 °F 1022.6 in Calm   1.6 mph 91 % 0.0 in
21:17 5.6 °F 4.2 °F 1022.6 in North 1.6 mph   91 % 0.0 in
21:27 5.6 °F 4.4 °F 1022.6 in Calm   1.6 mph 92 % 0.0 in
21:37 5.6 °F 4.4 °F 1022.9 in NNW 1.6 mph 4.8 mph 92 % 0.0 in
21:42 5.6 °F 4.4 °F 1022.9 in NW 3.2 mph 4.8 mph 92 % 0.0 in
21:52 5.5 °F 4.5 °F 1022.9 in NNW 1.6 mph 4.8 mph 93 % 0.0 in
21:57 5.5 °F 4.5 °F 1022.9 in NNW 1.6 mph 4.8 mph 93 % 0.0 in
22:02 5.5 °F 4.5 °F 1022.9 in Calm   4.8 mph 93 % 0.0 in
22:07 5.4 °F 4.4 °F 1022.9 in Calm   4.8 mph 93 % 0.0 in
22:12 5.4 °F 4.4 °F 1022.9 in Calm   3.2 mph 93 % 0.0 in
22:17 5.4 °F 4.4 °F 1022.9 in Calm   1.6 mph 93 % 0.3 in
22:22 5.4 °F 4.5 °F 1022.9 in Calm   1.6 mph 94 % 0.3 in
22:32 5.4 °F 4.5 °F 1022.9 in Calm   1.6 mph 94 % 0.3 in
22:37 5.4 °F 4.5 °F 1022.9 in Calm   1.6 mph 94 % 0.3 in
22:42 5.4 °F 4.5 °F 1022.9 in Calm     94 % 0.3 in
22:47 5.4 °F 4.5 °F 1022.9 in Calm     94 % 0.3 in
22:52 5.4 °F 4.5 °F 1022.9 in Calm     94 % 0.3 in
22:57 5.5 °F 4.6 °F 1022.9 in Calm     94 % 0.3 in
23:02 5.5 °F 4.6 °F 1022.9 in Calm   1.6 mph 94 % 0.3 in
23:07 5.5 °F 4.6 °F 1022.9 in Calm   1.6 mph 94 % 0.3 in
23:12 5.5 °F 4.6 °F 1022.9 in Calm   1.6 mph 94 % 0.3 in
23:17 5.5 °F 4.6 °F 1022.9 in Calm     94 % 0.0 in
23:22 5.5 °F 4.6 °F 1022.9 in Calm     94 % 0.0 in
23:32 5.5 °F 4.6 °F 1022.9 in Calm   1.6 mph 94 % 0.0 in
23:37 5.5 °F 4.6 °F 1022.9 in Calm   1.6 mph 94 % 0.0 in
23:47 5.4 °F 4.5 °F 1023.2 in Calm     94 % 0.0 in
23:52 5.4 °F 4.5 °F 1022.9 in Calm     94 % 0.0 in
23:57 5.4 °F 4.5 °F 1022.9 in Calm     94 % 0.0 in
Meteo18
Compliments of Weather Underground - 4 mb

Script developed by  Jim McMurry - jmcmurry@mwt.net Adapted for the template by  Wim van der Kuil - Leuven-Template.eu

You find our weather info also at:

European Weather Network

Weather Underground

Equipment we use:

Weather-station
Davis Vue

Weather-program
Meteobridge

Weather-server
Raspberry PI 2 B+

Provider
1 and 1

Davis Vue

Meteobridge

Raspberry PI 2 B+

1 and 1